Time;durP1;ratioP1;P1;durP2;ratioP2;P2;SDS_P1;SDS_P2;PMS_P1;PMS_P2;Temp;Humidity;BMP_temperature;BMP_pressure;BME280_temperature;BME280_humidity;BME280_pressure;Samples;Min_cycle;Max_cycle;Signal;HPM_P1;HPM_P2
2021/06/22 00:01:18;;;;;;;10.05;3.13;;;;;;;12.87;100.00;101171.38;6222989;28;20049;-75
2021/06/22 00:04:19;;;;;;;14.57;3.83;;;;;;;12.84;100.00;101167.09;6224018;28;20050;-75
2021/06/22 00:07:20;;;;;;;16.17;4.28;;;;;;;12.77;100.00;101151.75;6222779;28;20057;-75
2021/06/22 00:10:25;;;;;;;12.82;3.42;;;;;;;12.99;100.00;101140.78;6222626;28;20050;-75
2021/06/22 00:13:26;;;;;;;19.10;5.55;;;;;;;12.92;100.00;101143.78;6222521;28;20501;-74
2021/06/22 00:16:28;;;;;;;23.52;4.63;;;;;;;12.82;100.00;101161.09;6222827;28;20053;-74
2021/06/22 00:19:29;;;;;;;16.45;4.00;;;;;;;12.81;100.00;101167.31;6222412;28;20057;-75
2021/06/22 00:22:31;;;;;;;9.63;3.65;;;;;;;12.81;100.00;101169.06;6222501;28;20054;-75
2021/06/22 00:25:33;;;;;;;18.27;5.70;;;;;;;12.95;100.00;101175.28;6222646;28;20056;-74
2021/06/22 00:28:35;;;;;;;16.73;3.78;;;;;;;12.90;100.00;101181.75;6222471;28;20073;-74
2021/06/22 00:31:36;;;;;;;12.23;3.90;;;;;;;12.94;100.00;101191.19;6224237;28;20041;-74
2021/06/22 00:34:38;;;;;;;19.23;3.67;;;;;;;13.01;100.00;101181.16;6222484;28;20056;-75
2021/06/22 00:37:40;;;;;;;17.85;4.30;;;;;;;12.94;100.00;101163.03;6222400;28;20057;-78
2021/06/22 00:40:42;;;;;;;17.55;4.20;;;;;;;12.96;100.00;101157.66;6221929;28;20046;-74
2021/06/22 00:43:44;;;;;;;16.17;4.82;;;;;;;13.00;100.00;101151.28;6222357;28;20057;-75
2021/06/22 00:46:45;;;;;;;15.70;4.30;;;;;;;12.85;100.00;101157.41;6222170;28;20050;-74
2021/06/22 00:49:48;;;;;;;14.95;4.60;;;;;;;12.87;100.00;101152.91;6222219;28;20484;-75
2021/06/22 00:52:50;;;;;;;19.00;4.95;;;;;;;12.80;100.00;101149.75;6221915;28;20053;-74
2021/06/22 00:55:54;;;;;;;22.42;4.82;;;;;;;12.87;100.00;101153.75;6222191;28;20060;-74
2021/06/22 00:58:55;;;;;;;16.70;5.63;;;;;;;12.81;100.00;101150.59;6223069;28;20056;-75
2021/06/22 01:01:57;;;;;;;14.43;4.72;;;;;;;13.00;100.00;101153.06;6222039;28;20046;-75
2021/06/22 01:04:58;;;;;;;15.80;4.68;;;;;;;12.82;100.00;101160.25;6221978;28;20057;-75
2021/06/22 01:08:00;;;;;;;20.35;4.97;;;;;;;12.93;100.00;101152.56;6222153;28;20081;-75
2021/06/22 01:11:03;;;;;;;15.45;5.07;;;;;;;12.87;100.00;101168.75;6221859;28;20046;-75
2021/06/22 01:14:05;;;;;;;12.60;4.60;;;;;;;12.85;100.00;101174.09;6222085;28;20046;-75
2021/06/22 01:17:06;;;;;;;13.88;4.80;;;;;;;12.89;100.00;101172.97;6222017;28;20521;-74
2021/06/22 01:20:09;;;;;;;20.88;5.63;;;;;;;12.90;100.00;101172.06;6221591;28;20050;-74
2021/06/22 01:23:12;;;;;;;16.27;5.65;;;;;;;12.84;100.00;101161.00;6221809;28;20139;-75
2021/06/22 01:26:13;;;;;;;21.25;5.20;;;;;;;13.27;100.00;101154.16;6244144;28;20057;-74
2021/06/22 01:29:15;;;;;;;20.77;5.50;;;;;;;12.88;100.00;101146.69;6246192;28;20501;-76
2021/06/22 01:32:16;;;;;;;17.70;4.97;;;;;;;12.94;100.00;101147.22;6245933;28;20045;-74
2021/06/22 01:35:18;;;;;;;17.23;5.22;;;;;;;12.93;100.00;101136.72;6246261;28;20045;-77
2021/06/22 01:38:22;;;;;;;19.48;5.43;;;;;;;12.77;100.00;101133.28;6245969;28;20053;-75
2021/06/22 01:41:24;;;;;;;18.88;5.43;;;;;;;12.90;100.00;101140.41;6246166;28;20053;-75
2021/06/22 01:44:28;;;;;;;17.05;5.38;;;;;;;12.85;100.00;101136.31;6245992;28;20049;-75
2021/06/22 01:47:30;;;;;;;21.08;5.68;;;;;;;12.77;100.00;101139.41;6246270;28;20053;-75
2021/06/22 01:50:31;;;;;;;21.20;5.82;;;;;;;12.72;100.00;101146.72;6244771;28;20041;-74
2021/06/22 01:53:34;;;;;;;22.23;5.65;;;;;;;12.73;100.00;101144.94;6248350;28;20045;-74
2021/06/22 01:56:36;;;;;;;20.00;5.75;;;;;;;12.76;100.00;101157.91;6250439;28;20497;-75
2021/06/22 01:59:40;;;;;;;21.17;6.03;;;;;;;13.07;100.00;101157.88;6250092;28;20419;-76
2021/06/22 02:02:41;;;;;;;18.77;6.80;;;;;;;12.84;100.00;101171.53;6250144;28;20045;-74
2021/06/22 02:05:43;;;;;;;22.17;6.03;;;;;;;12.76;100.00;101171.09;6250068;28;20060;-75
2021/06/22 02:08:46;;;;;;;13.20;5.15;;;;;;;12.95;100.00;101172.66;6250171;28;20050;-77
2021/06/22 02:11:47;;;;;;;24.23;6.57;;;;;;;12.66;100.00;101171.63;6249641;28;20405;-77
2021/06/22 02:14:48;;;;;;;21.88;6.05;;;;;;;12.81;100.00;101172.56;6249640;28;20428;-78
2021/06/22 02:17:50;;;;;;;19.98;6.00;;;;;;;12.79;100.00;101173.59;6245657;28;20736;-74
2021/06/22 02:20:51;;;;;;;22.67;6.57;;;;;;;12.80;100.00;101172.66;6225199;28;20176;-74
2021/06/22 02:23:54;;;;;;;26.20;7.72;;;;;;;12.69;100.00;101189.06;6225160;28;20053;-74
2021/06/22 02:26:55;;;;;;;17.08;5.95;;;;;;;12.85;100.00;101191.69;6226059;28;20053;-74
2021/06/22 02:29:57;;;;;;;22.08;6.60;;;;;;;12.76;100.00;101203.59;6224679;28;20080;-74
2021/06/22 02:32:59;;;;;;;13.48;5.43;;;;;;;12.77;100.00;101191.28;6225080;28;20046;-75
2021/06/22 02:36:00;;;;;;;22.83;5.65;;;;;;;12.75;100.00;101206.34;6225186;28;20058;-76
2021/06/22 02:39:04;;;;;;;28.10;6.82;;;;;;;12.83;100.00;101201.50;6224728;28;20049;-75
2021/06/22 02:42:06;;;;;;;19.17;5.93;;;;;;;12.81;100.00;101211.25;6251214;28;20062;-75
2021/06/22 02:45:08;;;;;;;26.40;6.35;;;;;;;12.75;100.00;101219.53;6257544;28;20050;-75
2021/06/22 02:48:10;;;;;;;15.23;6.47;;;;;;;12.74;100.00;101237.13;6257424;28;20420;-75
2021/06/22 02:51:12;;;;;;;30.77;7.03;;;;;;;12.64;100.00;101234.16;6273859;28;20059;-76
2021/06/22 02:54:14;;;;;;;26.08;6.30;;;;;;;12.67;100.00;101238.38;6273845;28;20048;-75
2021/06/22 02:57:16;;;;;;;29.08;6.93;;;;;;;12.62;100.00;101232.53;6262369;28;20053;-76
2021/06/22 03:00:19;;;;;;;12.43;5.72;;;;;;;12.67;100.00;101220.81;6248525;28;20402;-76
2021/06/22 03:03:20;;;;;;;19.40;6.18;;;;;;;12.69;100.00;101218.94;6248173;28;20058;-76
2021/06/22 03:06:22;;;;;;;18.27;5.75;;;;;;;12.76;100.00;101210.66;6248716;28;20045;-75
2021/06/22 03:09:25;;;;;;;12.20;6.40;;;;;;;12.70;100.00;101204.81;6248773;28;20651;-75
2021/06/22 03:12:26;;;;;;;27.63;7.15;;;;;;;12.80;100.00;101214.84;6250744;28;20046;-74
2021/06/22 03:15:28;;;;;;;12.15;5.13;;;;;;;12.80;100.00;101220.97;6265118;28;20500;-75
2021/06/22 03:18:29;;;;;;;19.55;5.85;;;;;;;12.87;100.00;101227.63;6273099;28;20531;-74
2021/06/22 03:21:30;;;;;;;25.58;6.13;;;;;;;13.01;100.00;101232.13;6237729;28;20050;-75
2021/06/22 03:24:33;;;;;;;26.75;6.20;;;;;;;12.86;100.00;101228.56;6223787;28;20058;-75
2021/06/22 03:27:35;;;;;;;18.20;6.07;;;;;;;12.84;100.00;101226.94;6223643;28;20425;-76
2021/06/22 03:30:36;;;;;;;19.05;6.85;;;;;;;12.88;100.00;101228.47;6223500;28;20050;-75
2021/06/22 03:33:38;;;;;;;17.38;5.85;;;;;;;12.97;100.00;101219.19;6223611;28;20057;-74
2021/06/22 03:36:39;;;;;;;17.88;6.03;;;;;;;12.86;100.00;101212.72;6223646;28;20049;-75
2021/06/22 03:39:42;;;;;;;20.23;6.03;;;;;;;13.00;100.00;101213.75;6223250;28;20527;-75
2021/06/22 03:42:45;;;;;;;19.85;6.15;;;;;;;12.99;100.00;101207.63;6223559;28;20045;-75
2021/06/22 03:45:47;;;;;;;18.73;5.90;;;;;;;12.97;100.00;101212.13;6247616;28;20515;-76
2021/06/22 03:48:48;;;;;;;21.08;6.35;;;;;;;12.90;100.00;101205.50;6247863;28;20052;-74
2021/06/22 03:51:50;;;;;;;17.88;5.88;;;;;;;13.03;100.00;101203.84;6247345;28;20068;-75
2021/06/22 03:54:53;;;;;;;23.98;6.97;;;;;;;12.93;100.00;101207.97;6247831;28;20060;-75
2021/06/22 03:57:56;;;;;;;20.02;6.72;;;;;;;13.05;100.00;101207.28;6247724;28;20405;-75
2021/06/22 04:00:57;;;;;;;18.10;5.45;;;;;;;13.04;100.00;101215.28;6247625;28;20048;-75
2021/06/22 04:03:59;;;;;;;16.70;5.50;;;;;;;13.04;100.00;101225.84;6247236;28;20045;-77
2021/06/22 04:07:00;;;;;;;19.33;5.88;;;;;;;12.98;100.00;101227.00;6247523;28;20050;-75
2021/06/22 04:10:04;;;;;;;17.00;5.88;;;;;;;12.88;100.00;101236.38;6247137;28;20432;-76
2021/06/22 04:13:05;;;;;;;26.50;7.13;;;;;;;12.81;100.00;101241.16;6229808;28;20045;-76
2021/06/22 04:16:07;;;;;;;17.02;6.35;;;;;;;12.92;100.00;101251.97;6221967;28;20057;-75
2021/06/22 04:19:08;;;;;;;18.60;5.85;;;;;;;13.00;100.00;101255.97;6222553;28;20061;-76
2021/06/22 04:22:09;;;;;;;21.08;5.90;;;;;;;13.09;100.00;101248.38;6222593;28;20045;-75
2021/06/22 04:25:13;;;;;;;21.88;6.90;;;;;;;13.06;100.00;101252.97;6222596;28;20076;-75
2021/06/22 04:28:14;;;;;;;21.27;6.35;;;;;;;12.95;100.00;101243.88;6222457;28;20049;-77
2021/06/22 04:31:16;;;;;;;19.75;7.25;;;;;;;12.85;100.00;101242.69;6222292;28;20050;-75
2021/06/22 04:34:19;;;;;;;19.83;6.80;;;;;;;12.88;100.00;101247.78;6222366;28;20054;-75
2021/06/22 04:37:20;;;;;;;18.70;6.13;;;;;;;13.05;100.00;101256.56;6222392;28;20050;-76
2021/06/22 04:40:23;;;;;;;21.38;5.68;;;;;;;12.97;100.00;101256.97;6222505;28;20068;-74
2021/06/22 04:43:24;;;;;;;25.35;6.47;;;;;;;13.02;100.00;101262.84;6238011;28;20524;-74
2021/06/22 04:46:26;;;;;;;26.35;6.22;;;;;;;12.89;100.00;101254.75;6246952;28;20045;-74
2021/06/22 04:49:27;;;;;;;23.98;5.88;;;;;;;12.98;100.00;101269.22;6246551;28;20416;-74
2021/06/22 04:52:28;;;;;;;14.70;6.55;;;;;;;13.00;100.00;101269.16;6255203;28;20394;-74
2021/06/22 04:55:31;;;;;;;25.20;6.32;;;;;;;13.17;100.00;101277.84;6262519;28;20057;-77
2021/06/22 04:58:33;;;;;;;18.52;5.47;;;;;;;13.07;100.00;101281.06;6246334;28;20045;-78
2021/06/22 05:01:34;;;;;;;18.02;6.25;;;;;;;12.89;100.00;101277.66;6257914;28;20060;-74
2021/06/22 05:04:36;;;;;;;13.63;5.78;;;;;;;13.10;100.00;101279.13;6271144;28;20059;-74
2021/06/22 05:07:37;;;;;;;16.23;5.93;;;;;;;12.99;100.00;101268.31;6262493;28;20048;-74
2021/06/22 05:10:40;;;;;;;14.95;6.18;;;;;;;12.89;100.00;101262.66;6270785;28;20056;-74
2021/06/22 05:13:42;;;;;;;18.75;6.38;;;;;;;12.88;100.00;101268.03;6231598;28;20050;-75
2021/06/22 05:16:45;;;;;;;25.98;6.43;;;;;;;12.96;100.00;101284.31;6243746;28;20049;-74
2021/06/22 05:19:47;;;;;;;20.52;6.10;;;;;;;12.91;100.00;101286.34;6267955;28;20045;-74
2021/06/22 05:22:48;;;;;;;14.40;5.85;;;;;;;12.99;100.00;101284.16;6270784;28;20056;-74
2021/06/22 05:25:51;;;;;;;13.02;5.60;;;;;;;13.07;100.00;101289.81;6270762;28;20397;-73
2021/06/22 05:28:52;;;;;;;20.48;6.22;;;;;;;13.12;100.00;101294.84;6274736;28;20519;-73
2021/06/22 05:31:54;;;;;;;18.80;6.03;;;;;;;13.13;100.00;101291.31;6275138;28;20049;-72
2021/06/22 05:34:55;;;;;;;21.08;5.55;;;;;;;13.28;100.00;101298.38;6275790;28;20049;-73
2021/06/22 05:37:57;;;;;;;16.33;5.45;;;;;;;13.24;100.00;101291.56;6264519;28;20045;-73
2021/06/22 05:40:59;;;;;;;17.33;5.43;;;;;;;13.30;100.00;101287.72;6245942;28;20037;-73
2021/06/22 05:44:01;;;;;;;20.70;5.95;;;;;;;13.14;100.00;101285.94;6226888;28;20045;-72
2021/06/22 05:47:02;;;;;;;24.52;7.53;;;;;;;13.13;100.00;101288.66;6226188;28;20056;-73
2021/06/22 05:50:06;;;;;;;18.38;7.03;;;;;;;13.12;100.00;101294.84;6229752;28;20052;-73
2021/06/22 05:53:08;;;;;;;16.00;5.32;;;;;;;13.20;100.00;101285.56;6237636;28;20056;-73
2021/06/22 05:56:11;;;;;;;28.15;5.70;;;;;;;13.36;100.00;101276.84;6234478;28;20494;-72
2021/06/22 05:59:12;;;;;;;18.98;6.57;;;;;;;13.21;100.00;101273.22;6235955;28;20480;-73
2021/06/22 06:02:14;;;;;;;19.33;5.28;;;;;;;13.27;100.00;101272.94;6241090;28;20037;-73
2021/06/22 06:05:16;;;;;;;15.82;5.50;;;;;;;13.45;100.00;101276.34;6241220;28;20046;-73
2021/06/22 06:08:18;;;;;;;26.55;6.55;;;;;;;13.36;100.00;101282.13;6236222;28;20421;-72
2021/06/22 06:11:20;;;;;;;15.73;4.60;;;;;;;13.44;100.00;101279.88;6233671;28;20042;-72
2021/06/22 06:14:22;;;;;;;14.32;4.40;;;;;;;13.51;100.00;101281.25;6235698;28;20045;-73
2021/06/22 06:17:24;;;;;;;17.63;4.90;;;;;;;13.69;100.00;101282.84;6239712;28;20060;-73
2021/06/22 06:20:27;;;;;;;13.38;4.63;;;;;;;13.77;100.00;101284.19;6249982;28;20045;-73
2021/06/22 06:23:31;;;;;;;17.63;4.88;;;;;;;13.82;98.61;101285.63;6237516;28;20041;-73
2021/06/22 06:26:44;;;;;;;17.85;4.80;;;;;;;13.74;100.00;101287.00;6244518;28;20466;-73
2021/06/22 06:29:52;;;;;;;14.15;4.15;;;;;;;13.74;100.00;101295.78;6249503;28;20104;-73
2021/06/22 06:32:54;;;;;;;14.75;4.60;;;;;;;14.00;100.00;101299.53;6241677;28;20042;-74
2021/06/22 06:35:55;;;;;;;12.88;3.92;;;;;;;14.02;95.00;101295.00;6227123;28;20045;-73
2021/06/22 06:38:56;;;;;;;18.63;4.00;;;;;;;14.03;98.77;101298.50;6235716;28;20058;-73
2021/06/22 06:41:59;;;;;;;9.50;3.58;;;;;;;14.16;97.43;101305.59;6236928;28;20072;-73
2021/06/22 06:45:01;;;;;;;10.82;3.33;;;;;;;14.28;91.67;101309.34;6227251;28;20421;-72
2021/06/22 06:48:02;;;;;;;20.58;4.05;;;;;;;13.95;96.95;101312.19;6224847;28;20201;-74
2021/06/22 06:51:04;;;;;;;17.38;3.88;;;;;;;14.02;95.24;101310.88;6224343;28;20054;-73
2021/06/22 06:54:05;;;;;;;13.60;3.90;;;;;;;13.86;98.43;101323.28;6224351;28;20421;-73
2021/06/22 06:57:08;;;;;;;22.08;4.00;;;;;;;13.87;97.03;101335.56;6224397;28;20061;-74
2021/06/22 07:00:11;;;;;;;17.55;4.22;;;;;;;13.93;94.32;101340.47;6245709;28;20046;-73
2021/06/22 07:03:13;;;;;;;9.43;3.38;;;;;;;13.83;97.04;101334.03;6251840;28;20420;-74
2021/06/22 07:06:15;;;;;;;17.00;3.83;;;;;;;13.78;96.87;101331.66;6264433;28;20049;-74
2021/06/22 07:09:17;;;;;;;18.67;4.03;;;;;;;13.85;98.21;101346.22;6273462;28;20056;-75
2021/06/22 07:12:20;;;;;;;12.98;3.53;;;;;;;13.87;94.79;101346.97;6264909;28;20038;-74
2021/06/22 07:15:21;;;;;;;22.73;4.13;;;;;;;14.07;92.94;101344.94;6248599;28;20052;-74
2021/06/22 07:18:23;;;;;;;15.07;4.20;;;;;;;14.02;94.14;101341.72;6248323;28;20180;-73
2021/06/22 07:21:24;;;;;;;9.77;3.88;;;;;;;14.00;96.06;101336.53;6248439;28;20533;-73
2021/06/22 07:24:26;;;;;;;20.52;4.57;;;;;;;14.24;94.73;101325.47;6248115;28;20045;-73
2021/06/22 07:27:28;;;;;;;11.25;4.05;;;;;;;14.32;95.31;101320.59;6241510;28;20053;-74
2021/06/22 07:30:30;;;;;;;16.05;4.57;;;;;;;14.56;93.39;101320.91;6221982;28;20049;-74
2021/06/22 07:33:31;;;;;;;13.85;3.50;;;;;;;14.58;88.73;101325.19;6222678;28;20041;-75
2021/06/22 07:36:33;;;;;;;13.88;3.70;;;;;;;14.66;88.79;101322.91;6236175;28;20123;-74
2021/06/22 07:39:34;;;;;;;17.73;2.63;;;;;;;14.71;88.51;101328.75;6257106;28;20063;-74
2021/06/22 07:42:37;;;;;;;9.10;2.80;;;;;;;14.70;89.65;101342.09;6250147;28;20046;-73
2021/06/22 07:45:38;;;;;;;12.93;2.85;;;;;;;15.00;85.09;101335.88;6223203;28;20073;-74
2021/06/22 07:48:40;;;;;;;17.58;3.35;;;;;;;15.02;87.54;101337.44;6248404;28;20042;-75
2021/06/22 07:51:41;;;;;;;17.75;3.33;;;;;;;15.14;88.07;101335.84;6238280;28;20068;-74
2021/06/22 07:54:43;;;;;;;13.38;3.13;;;;;;;15.04;86.88;101346.16;6243512;28;20064;-74
2021/06/22 07:57:47;;;;;;;9.98;2.78;;;;;;;14.96;92.28;101345.78;6246997;28;20057;-75
2021/06/22 08:00:49;;;;;;;12.52;3.28;;;;;;;14.97;91.72;101353.63;6254553;28;20053;-74
2021/06/22 08:03:51;;;;;;;17.58;3.45;;;;;;;15.01;89.44;101353.44;6268769;28;20052;-73
2021/06/22 08:06:54;;;;;;;14.30;3.55;;;;;;;14.97;90.08;101364.22;6244730;28;20052;-73
2021/06/22 08:09:55;;;;;;;10.02;2.47;;;;;;;14.81;84.95;101360.81;6246512;28;20139;-69
2021/06/22 08:12:58;;;;;;;8.85;2.25;;;;;;;14.80;85.46;101343.22;6241328;28;20049;-68
2021/06/22 08:16:02;;;;;;;12.07;2.58;;;;;;;14.76;87.53;101346.16;6222238;28;20049;-74
2021/06/22 08:19:03;;;;;;;12.07;2.67;;;;;;;14.82;91.46;101343.16;6221411;28;20058;-74
2021/06/22 08:22:05;;;;;;;16.85;2.88;;;;;;;14.97;90.66;101345.69;6221661;28;20046;-75
2021/06/22 08:25:07;;;;;;;9.38;2.97;;;;;;;15.18;86.42;101345.28;6246116;28;20496;-75
2021/06/22 08:28:10;;;;;;;16.98;3.40;;;;;;;15.13;84.31;101353.53;6246512;28;20053;-74
2021/06/22 08:31:12;;;;;;;18.67;3.30;;;;;;;15.10;85.92;101353.72;6245631;28;20049;-74
2021/06/22 08:34:14;;;;;;;16.15;3.00;;;;;;;15.02;86.82;101349.84;6245425;28;20052;-74
2021/06/22 08:37:15;;;;;;;16.17;3.25;;;;;;;15.08;86.00;101354.75;6246318;28;20049;-75
2021/06/22 08:40:16;;;;;;;16.88;3.38;;;;;;;15.07;86.70;101355.69;6245578;28;20046;-74
2021/06/22 08:43:19;;;;;;;14.25;2.78;;;;;;;15.07;86.67;101361.00;6238974;28;20516;-70
2021/06/22 08:46:21;;;;;;;9.93;2.72;;;;;;;15.26;84.02;101350.09;6220803;28;20046;-71
2021/06/22 08:49:22;;;;;;;8.38;2.40;;;;;;;15.41;77.78;101338.53;6221007;28;20046;-75
2021/06/22 08:52:25;;;;;;;10.23;2.85;;;;;;;15.62;79.54;101346.88;6229368;28;20053;-74
2021/06/22 08:55:27;;;;;;;15.82;2.95;;;;;;;15.73;82.22;101355.03;6245957;28;20485;-74
2021/06/22 08:58:30;;;;;;;9.00;2.97;;;;;;;15.88;81.11;101363.78;6245554;28;20091;-74
2021/06/22 09:01:31;;;;;;;11.55;2.42;;;;;;;16.00;75.26;101357.66;6242684;28;20127;-75
2021/06/22 09:04:33;;;;;;;11.73;2.00;;;;;;;15.84;76.36;101351.66;6256181;28;20513;-74
2021/06/22 09:07:50;;;;;;;18.13;2.90;;;;;;;15.96;74.73;101358.81;6261653;28;20136;-73
2021/06/22 09:10:53;;;;;;;13.07;2.40;;;;;;;15.80;78.25;101366.06;6273180;28;20084;-74
2021/06/22 09:13:59;;;;;;;11.35;2.45;;;;;;;15.90;78.75;101361.88;6268943;28;20184;-74
2021/06/22 09:17:01;;;;;;;8.63;2.75;;;;;;;15.97;77.61;101374.63;6258084;28;20053;-75
2021/06/22 09:20:02;;;;;;;10.23;2.70;;;;;;;15.88;75.79;101374.38;6267180;28;20041;-75
2021/06/22 09:23:17;;;;;;;13.05;3.05;;;;;;;15.85;77.83;101378.09;6273593;28;20052;-75
2021/06/22 09:26:21;;;;;;;12.05;2.88;;;;;;;16.02;75.53;101381.41;6274609;28;20041;-74
2021/06/22 09:29:23;;;;;;;17.98;3.63;;;;;;;15.83;76.83;101369.38;6272455;28;20519;-74
2021/06/22 09:32:29;;;;;;;12.85;2.67;;;;;;;15.85;76.76;101367.50;6258733;28;20084;-75
2021/06/22 09:35:30;;;;;;;15.77;3.08;;;;;;;15.93;75.96;101361.66;6250395;28;20041;-74
2021/06/22 09:38:36;;;;;;;10.30;2.40;;;;;;;15.92;74.06;101354.66;6250475;28;20056;-74
2021/06/22 09:41:39;;;;;;;11.50;2.80;;;;;;;15.97;75.09;101365.81;6250169;28;20107;-74
2021/06/22 09:44:42;;;;;;;10.40;2.85;;;;;;;16.02;76.19;101365.50;6244748;28;20042;-73
2021/06/22 09:47:46;;;;;;;8.27;2.03;;;;;;;16.16;75.67;101360.97;6225497;28;20200;-74
2021/06/22 09:50:48;;;;;;;13.15;2.33;;;;;;;16.19;74.84;101368.75;6225738;28;20046;-75
2021/06/22 09:53:51;;;;;;;13.00;2.53;;;;;;;16.33;77.52;101369.63;6225215;28;20052;-74
2021/06/22 09:57:01;;;;;;;8.85;2.42;;;;;;;16.65;70.00;101370.06;6230192;28;20050;-74
2021/06/22 10:00:08;;;;;;;8.98;2.78;;;;;;;16.59;68.02;101371.34;6249929;28;20053;-74
2021/06/22 10:03:10;;;;;;;6.97;1.90;;;;;;;16.50;68.60;101369.34;6249531;28;20060;-74
2021/06/22 10:06:11;;;;;;;8.60;2.15;;;;;;;16.53;69.15;101357.63;6249706;28;20417;-75
2021/06/22 10:09:19;;;;;;;8.32;2.42;;;;;;;16.68;68.47;101349.50;6249443;28;20057;-74
2021/06/22 10:12:21;;;;;;;5.75;2.10;;;;;;;16.69;70.05;101360.94;6249460;28;20052;-73
2021/06/22 10:15:24;;;;;;;10.52;2.03;;;;;;;16.66;68.50;101371.78;6240890;28;20053;-74
2021/06/22 10:18:26;;;;;;;13.43;2.25;;;;;;;16.70;66.65;101370.59;6224891;28;20675;-75
2021/06/22 10:21:27;;;;;;;9.38;1.80;;;;;;;16.64;66.25;101381.66;6224730;28;20436;-74
2021/06/22 10:24:30;;;;;;;8.85;1.85;;;;;;;16.55;70.94;101372.53;6224537;28;20046;-74
2021/06/22 10:27:32;;;;;;;7.80;1.98;;;;;;;16.60;70.28;101366.91;6224508;28;20053;-75
2021/06/22 10:30:35;;;;;;;6.75;1.63;;;;;;;16.92;64.04;101365.53;6224536;28;20046;-74
2021/06/22 10:33:36;;;;;;;9.85;1.90;;;;;;;16.84;63.88;101375.84;6224364;28;20053;-74
2021/06/22 10:36:44;;;;;;;8.00;2.10;;;;;;;16.70;67.06;101370.59;6246153;28;20050;-73
2021/06/22 10:39:50;;;;;;;9.30;2.33;;;;;;;16.69;67.70;101383.03;6248970;28;20053;-72
2021/06/22 10:42:54;;;;;;;8.55;2.15;;;;;;;16.44;67.60;101385.66;6248993;28;20041;-73
2021/06/22 10:45:59;;;;;;;12.80;2.60;;;;;;;16.54;71.16;101386.75;6241437;28;20448;-72
2021/06/22 10:49:17;;;;;;;13.73;2.15;;;;;;;16.55;68.63;101391.09;6224475;28;20136;-74
2021/06/22 10:52:49;;;;;;;16.10;3.03;;;;;;;16.53;70.21;101405.41;6223978;28;20057;-74
2021/06/22 10:55:58;;;;;;;7.38;2.83;;;;;;;16.62;71.77;101399.47;6224409;28;20057;-75
2021/06/22 10:59:21;;;;;;;13.07;2.47;;;;;;;16.72;70.86;101403.25;6246336;28;20042;-74
2021/06/22 11:02:24;;;;;;;12.05;2.20;;;;;;;16.78;69.76;101410.78;6248595;28;20053;-74
2021/06/22 11:05:26;;;;;;;11.00;2.63;;;;;;;16.53;70.89;101410.72;6248455;28;20730;-74
2021/06/22 11:08:31;;;;;;;12.07;2.20;;;;;;;16.67;69.60;101408.84;6248363;28;20049;-75
2021/06/22 11:11:33;;;;;;;8.18;2.42;;;;;;;16.60;70.56;101404.88;6248178;28;20489;-74
2021/06/22 11:15:05;;;;;;;11.15;2.40;;;;;;;16.64;74.76;101402.88;6239372;28;20052;-74
2021/06/22 11:18:10;;;;;;;13.00;2.47;;;;;;;16.74;73.46;101398.66;6227238;28;20053;-74
2021/06/22 11:21:17;;;;;;;10.10;2.40;;;;;;;17.08;67.60;101393.66;6223729;28;20179;-74
2021/06/22 11:24:21;;;;;;;11.88;2.75;;;;;;;17.06;68.30;101390.28;6222716;28;20088;-75
2021/06/22 11:27:22;;;;;;;9.85;2.83;;;;;;;17.19;70.87;101389.31;6223419;28;20061;-75
2021/06/22 11:30:49;;;;;;;10.45;2.55;;;;;;;17.12;71.73;101381.88;6223034;28;20057;-75
2021/06/22 11:34:04;;;;;;;20.90;2.85;;;;;;;17.19;73.53;101391.13;6224422;28;20046;-75
2021/06/22 11:37:19;;;;;;;8.23;2.38;;;;;;;17.25;67.19;101394.16;6223385;28;20057;-76
2021/06/22 11:40:24;;;;;;;15.02;4.38;;;;;;;17.10;66.72;101379.31;6227043;28;20050;-75
2021/06/22 11:43:25;;;;;;;8.88;2.42;;;;;;;17.25;66.89;101388.84;6232471;28;20531;-75
2021/06/22 11:46:27;;;;;;;8.48;2.50;;;;;;;17.20;65.99;101391.00;6233939;28;20053;-76
2021/06/22 11:49:40;;;;;;;8.35;2.75;;;;;;;17.08;72.81;101398.97;6233977;28;20038;-75
2021/06/22 11:52:43;;;;;;;10.68;2.58;;;;;;;17.17;71.58;101393.88;6231204;28;20058;-75
2021/06/22 11:55:53;;;;;;;11.02;2.40;;;;;;;17.33;67.91;101398.09;6232571;28;20056;-74
2021/06/22 11:58:55;;;;;;;12.25;2.95;;;;;;;17.25;68.63;101390.66;6232971;28;20114;-76
2021/06/22 12:01:57;;;;;;;16.85;3.38;;;;;;;17.36;71.47;101395.22;6233357;28;20076;-76
2021/06/22 12:05:09;;;;;;;11.32;3.08;;;;;;;17.62;67.75;101382.69;6235096;28;20038;-75
2021/06/22 12:08:12;;;;;;;11.27;2.85;;;;;;;17.69;70.51;101384.81;6229366;28;20050;-76
2021/06/22 12:11:27;;;;;;;8.95;3.10;;;;;;;18.04;64.64;101381.41;6225521;28;20052;-76
2021/06/22 12:14:31;;;;;;;10.35;3.40;;;;;;;18.09;67.19;101381.91;6246486;28;20072;-75
2021/06/22 12:17:32;;;;;;;12.57;2.95;;;;;;;18.45;62.52;101375.59;6238981;28;20490;-75
2021/06/22 12:20:36;;;;;;;10.15;3.13;;;;;;;18.90;66.75;101369.53;6222225;28;20061;-74
2021/06/22 12:23:40;;;;;;;12.07;2.90;;;;;;;19.38;59.26;101375.44;6222114;28;20058;-77
2021/06/22 12:26:43;;;;;;;15.70;3.40;;;;;;;19.51;61.32;101370.81;6222481;28;20061;-76
2021/06/22 12:29:46;;;;;;;10.95;2.65;;;;;;;19.88;63.52;101375.00;6222064;28;20050;-77
2021/06/22 12:32:47;;;;;;;9.35;3.05;;;;;;;20.09;55.65;101378.56;6221593;28;20050;-75
2021/06/22 12:35:51;;;;;;;9.75;2.95;;;;;;;20.16;57.17;101368.19;6222051;28;20052;-75
2021/06/22 12:38:55;;;;;;;9.95;3.13;;;;;;;19.76;59.91;101368.88;6221440;28;20057;-76
2021/06/22 12:42:03;;;;;;;12.45;2.95;;;;;;;19.73;63.60;101369.09;6222029;28;20520;-76
2021/06/22 12:45:12;;;;;;;12.30;3.10;;;;;;;19.76;58.58;101376.88;6221981;28;20045;-76
2021/06/22 12:48:14;;;;;;;8.75;3.00;;;;;;;19.56;58.66;101369.59;6230868;28;20045;-78
2021/06/22 12:51:17;;;;;;;18.05;3.30;;;;;;;19.71;58.26;101377.25;6246496;28;20160;-74
2021/06/22 12:54:19;;;;;;;8.25;3.05;;;;;;;19.55;58.03;101362.56;6246154;28;20492;-76
2021/06/22 12:57:22;;;;;;;10.57;3.60;;;;;;;19.51;62.70;101362.81;6236981;28;20077;-75
2021/06/22 13:00:46;;;;;;;9.93;3.22;;;;;;;20.24;60.03;101361.25;6221881;28;20053;-77
2021/06/22 13:03:50;;;;;;;11.05;2.97;;;;;;;20.58;57.02;101358.41;6216864;28;20129;-77
2021/06/22 13:06:53;;;;;;;8.15;2.58;;;;;;;21.18;55.91;101351.38;6221944;28;20531;-75
2021/06/22 13:09:56;;;;;;;10.95;3.13;;;;;;;20.73;54.36;101348.22;6221367;28;20677;-75
2021/06/22 13:12:57;;;;;;;11.88;2.88;;;;;;;19.96;57.43;101346.69;6238437;28;20064;-74
2021/06/22 13:16:09;;;;;;;8.18;2.65;;;;;;;19.51;62.76;101357.47;6245809;28;20124;-77
2021/06/22 13:19:13;;;;;;;9.32;2.85;;;;;;;19.49;56.75;101354.09;6221941;28;20079;-75
2021/06/22 13:22:19;;;;;;;13.18;2.92;;;;;;;19.93;56.62;101340.78;6221324;28;20060;-76
2021/06/22 13:25:20;;;;;;;8.15;2.67;;;;;;;19.76;62.18;101360.84;6221615;28;20041;-76
2021/06/22 13:28:22;;;;;;;9.45;2.85;;;;;;;19.86;57.35;101352.94;6221362;28;20046;-77
2021/06/22 13:31:23;;;;;;;8.68;2.72;;;;;;;20.21;58.24;101365.97;6221202;28;20080;-76
2021/06/22 13:34:26;;;;;;;14.40;3.17;;;;;;;20.71;56.29;101367.06;6221223;28;20053;-75
2021/06/22 13:37:29;;;;;;;9.43;3.08;;;;;;;20.92;52.46;101352.81;6221168;28;20046;-76
2021/06/22 13:40:33;;;;;;;6.85;3.20;;;;;;;21.12;54.23;101356.41;6221254;28;20056;-76
2021/06/22 13:43:44;;;;;;;8.63;2.70;;;;;;;21.43;49.77;101352.72;6220795;28;20409;-76
2021/06/22 13:46:45;;;;;;;10.18;2.33;;;;;;;21.55;51.77;101358.81;6222349;28;20394;-75
2021/06/22 13:49:46;;;;;;;13.82;3.08;;;;;;;21.48;51.07;101353.19;6230895;28;20049;-75
2021/06/22 13:52:51;;;;;;;7.00;2.60;;;;;;;21.26;51.29;101351.53;6249887;28;20597;-76
2021/06/22 13:55:53;;;;;;;13.25;3.38;;;;;;;20.59;53.57;101351.25;6249778;28;20183;-75
2021/06/22 13:58:55;;;;;;;8.82;2.90;;;;;;;20.25;54.62;101359.41;6248131;28;20128;-76